createdAt,value
2023-02-15T00:00:15.925Z,44.97
2023-02-15T00:02:44.332Z,48.92
2023-02-15T00:05:12.243Z,44.97
2023-02-15T00:07:40.131Z,46.75
2023-02-15T00:10:08.770Z,48.25
2023-02-15T00:12:36.615Z,47.40
2023-02-15T00:15:04.715Z,50.28
2023-02-15T00:17:33.997Z,46.80
2023-02-15T00:20:01.938Z,48.70
2023-02-15T00:22:29.864Z,51.83
2023-02-15T00:24:57.820Z,46.08
2023-02-15T00:27:25.782Z,49.05
2023-02-15T00:29:53.879Z,48.35
2023-02-15T00:32:21.811Z,50.97
2023-02-15T00:34:51.144Z,51.05
2023-02-15T00:37:19.114Z,49.75
2023-02-15T00:39:49.006Z,45.95
2023-02-15T00:42:18.708Z,50.63
2023-02-15T00:44:47.728Z,52.65
2023-02-15T00:47:15.651Z,49.75
2023-02-15T00:49:44.035Z,47.83
2023-02-15T00:52:13.890Z,45.60
2023-02-15T00:54:41.832Z,53.15
2023-02-15T00:57:09.722Z,47.45
2023-02-15T00:59:37.736Z,49.85
2023-02-15T01:02:05.675Z,48.78
2023-02-15T01:04:33.639Z,48.03
2023-02-15T01:07:02.939Z,46.20
2023-02-15T01:09:32.273Z,52.58
2023-02-15T01:12:00.183Z,48.22
2023-02-15T01:14:28.833Z,47.67
2023-02-15T01:16:56.818Z,47.65
2023-02-15T01:19:24.858Z,49.28
2023-02-15T01:21:52.715Z,50.83
2023-02-15T01:24:20.620Z,50.53
2023-02-15T01:26:49.891Z,49.25
2023-02-15T01:29:17.833Z,52.50
2023-02-15T01:31:47.034Z,48.72
2023-02-15T01:34:16.008Z,47.58
2023-02-15T01:36:44.415Z,51.05
2023-02-15T01:39:12.565Z,50.40
2023-02-15T01:41:40.513Z,57.83
2023-02-15T01:44:23.409Z,49.63
2023-02-15T01:46:55.445Z,54.90
2023-02-15T01:49:25.986Z,60.53
2023-02-15T01:51:54.937Z,52.20
2023-02-15T01:54:28.785Z,51.25
2023-02-15T01:57:00.318Z,64.47
2023-02-15T01:59:28.293Z,59.58
2023-02-15T02:01:59.736Z,57.85
2023-02-15T02:04:30.210Z,63.10
2023-02-15T02:06:59.255Z,60.45
2023-02-15T02:09:27.687Z,62.13
2023-02-15T02:11:58.425Z,70.47
2023-02-15T02:14:26.806Z,59.38
2023-02-15T02:16:56.593Z,68.28
2023-02-15T02:19:47.998Z,58.97
2023-02-15T02:22:36.680Z,60.13
2023-02-15T02:25:25.500Z,59.38
2023-02-15T02:27:58.994Z,63.28
2023-02-15T02:30:41.836Z,58.55
2023-02-15T02:33:33.768Z,60.78
2023-02-15T02:36:08.545Z,70.97
2023-02-15T02:38:41.723Z,63.63
2023-02-15T02:41:14.620Z,67.40
2023-02-15T02:43:46.749Z,62.63
2023-02-15T02:46:19.074Z,67.68
2023-02-15T02:48:47.452Z,66.88
2023-02-15T02:51:22.351Z,67.28
2023-02-15T02:53:52.197Z,65.57
2023-02-15T02:56:22.767Z,59.08
2023-02-15T02:59:02.564Z,61.83
2023-02-15T03:01:33.745Z,58.50
2023-02-15T03:04:04.390Z,63.05
2023-02-15T03:06:37.886Z,62.75
2023-02-15T03:09:08.823Z,62.95
2023-02-15T03:11:36.926Z,68.32
2023-02-15T03:14:04.871Z,62.28
2023-02-15T03:16:33.904Z,73.18
2023-02-15T03:19:03.997Z,73.60
2023-02-15T03:21:36.778Z,71.10
2023-02-15T03:24:10.184Z,72.72
2023-02-15T03:26:38.403Z,66.55
2023-02-15T03:29:07.059Z,63.10
2023-02-15T03:31:39.522Z,65.07
2023-02-15T03:34:09.775Z,69.32
2023-02-15T03:36:41.760Z,76.20
2023-02-15T03:39:12.934Z,64.32
2023-02-15T03:41:42.559Z,62.88
2023-02-15T03:44:13.973Z,61.00
2023-02-15T03:46:45.093Z,64.88
2023-02-15T03:49:14.343Z,65.53
2023-02-15T03:51:45.544Z,64.65
2023-02-15T03:54:35.334Z,65.43
2023-02-15T03:57:17.536Z,68.35
2023-02-15T04:00:02.870Z,65.80
2023-02-15T04:02:42.751Z,56.63
2023-02-15T04:05:10.614Z,71.50
2023-02-15T04:07:39.784Z,62.85
2023-02-15T04:10:25.976Z,58.08
2023-02-15T04:12:53.873Z,63.15
2023-02-15T04:15:39.436Z,56.10
2023-02-15T04:18:07.743Z,59.80
2023-02-15T04:20:52.979Z,55.92
2023-02-15T04:23:39.762Z,62.67
2023-02-15T04:26:07.611Z,60.63
2023-02-15T04:28:35.426Z,70.65
2023-02-15T04:31:03.286Z,59.03
2023-02-15T04:33:31.136Z,61.72
2023-02-15T04:35:59.212Z,57.05
2023-02-15T04:38:28.624Z,63.10
2023-02-15T04:40:56.508Z,65.85
2023-02-15T04:43:24.407Z,56.50
2023-02-15T04:45:52.696Z,67.80
2023-02-15T04:48:20.676Z,65.25
2023-02-15T04:50:48.620Z,63.60
2023-02-15T04:53:18.402Z,62.05
2023-02-15T04:55:55.277Z,63.28
2023-02-15T04:58:23.244Z,65.18
2023-02-15T05:00:52.128Z,65.38
2023-02-15T05:03:20.089Z,66.70
2023-02-15T05:05:48.006Z,71.22
2023-02-15T05:08:15.928Z,70.85
2023-02-15T05:10:44.173Z,60.88
2023-02-15T05:13:13.501Z,65.80
2023-02-15T05:15:42.589Z,67.25
2023-02-15T05:18:11.996Z,72.20
2023-02-15T05:20:40.049Z,65.53
2023-02-15T05:23:07.976Z,68.60
2023-02-15T05:25:53.209Z,72.70
2023-02-15T05:28:22.516Z,64.05
2023-02-15T05:30:50.963Z,66.03
2023-02-15T05:33:19.435Z,69.38
2023-02-15T05:35:47.319Z,74.75
2023-02-15T05:38:15.261Z,74.22
2023-02-15T05:40:43.233Z,67.85
2023-02-15T05:43:11.523Z,69.43
2023-02-15T05:45:40.935Z,119.28
2023-02-15T05:48:09.941Z,81.82
2023-02-15T05:50:37.814Z,77.22
2023-02-15T05:53:05.858Z,74.70
2023-02-15T05:55:33.825Z,74.63
2023-02-15T05:58:01.811Z,71.47
2023-02-15T06:00:29.806Z,68.25
2023-02-15T06:02:59.590Z,81.55
2023-02-15T06:05:27.513Z,68.40
2023-02-15T06:07:55.429Z,69.45
2023-02-15T06:10:23.330Z,67.00
2023-02-15T06:12:51.217Z,71.88
2023-02-15T06:15:19.165Z,64.57
2023-02-15T06:17:47.265Z,66.50
2023-02-15T06:20:16.790Z,66.75
2023-02-15T06:22:45.236Z,76.63
2023-02-15T06:25:13.086Z,78.55
2023-02-15T06:27:43.130Z,105.57
2023-02-15T06:30:12.152Z,94.82
2023-02-15T06:32:41.666Z,65.10
2023-02-15T06:35:12.634Z,76.78
2023-02-15T06:37:42.087Z,83.43
2023-02-15T06:40:11.022Z,71.32
2023-02-15T06:42:38.903Z,78.10
2023-02-15T06:45:08.483Z,67.20
2023-02-15T06:47:36.476Z,68.57
2023-02-15T06:50:04.579Z,69.57
2023-02-15T06:52:32.526Z,80.07
2023-02-15T06:55:01.987Z,75.90
2023-02-15T06:57:29.903Z,62.08
2023-02-15T06:59:59.496Z,63.38
2023-02-15T07:02:28.437Z,61.35
2023-02-15T07:04:56.332Z,66.57
2023-02-15T07:07:24.389Z,62.08
2023-02-15T07:09:52.292Z,67.55
2023-02-15T07:12:39.061Z,64.28
2023-02-15T07:15:07.811Z,63.45
2023-02-15T07:17:36.617Z,75.63
2023-02-15T07:20:05.256Z,65.38
2023-02-15T07:22:35.158Z,58.85
2023-02-15T07:25:03.328Z,68.32
2023-02-15T07:27:32.682Z,77.07
2023-02-15T07:30:00.749Z,61.05
2023-02-15T07:32:30.026Z,62.17
2023-02-15T07:34:58.322Z,67.60
2023-02-15T07:37:26.559Z,64.05
2023-02-15T07:39:54.448Z,60.75
2023-02-15T07:42:23.145Z,67.07
2023-02-15T07:44:54.511Z,66.68
2023-02-15T07:47:22.460Z,71.72
2023-02-15T07:49:50.503Z,66.88
2023-02-15T07:52:26.026Z,66.65
2023-02-15T07:54:54.039Z,72.35
2023-02-15T07:57:21.925Z,66.35
2023-02-15T07:59:49.784Z,74.18
2023-02-15T08:02:19.176Z,68.47
2023-02-15T08:04:47.085Z,65.20
2023-02-15T08:07:15.004Z,65.68
2023-02-15T08:09:42.965Z,70.22
2023-02-15T08:12:10.904Z,66.32
2023-02-15T08:14:38.773Z,63.25
2023-02-15T08:17:06.708Z,63.42
2023-02-15T08:19:36.777Z,60.88
2023-02-15T08:22:05.894Z,64.32
2023-02-15T08:24:34.682Z,68.43
2023-02-15T08:27:06.072Z,58.58
2023-02-15T08:29:34.835Z,63.15
2023-02-15T08:32:03.968Z,61.22
2023-02-15T08:34:32.920Z,60.95
2023-02-15T08:37:02.542Z,61.45
2023-02-15T08:39:30.709Z,66.82
2023-02-15T08:41:58.693Z,65.95
2023-02-15T08:44:26.655Z,56.97
2023-02-15T08:46:55.829Z,65.32
2023-02-15T08:49:25.125Z,62.90
2023-02-15T08:51:53.368Z,52.45
2023-02-15T08:54:23.126Z,59.97
2023-02-15T08:56:51.185Z,65.30
2023-02-15T08:59:20.057Z,65.88
2023-02-15T09:01:48.580Z,54.88
2023-02-15T09:04:16.930Z,66.65
2023-02-15T09:06:48.301Z,56.80
2023-02-15T09:09:17.299Z,71.75
2023-02-15T09:11:47.450Z,63.25
2023-02-15T09:14:16.081Z,68.47
2023-02-15T09:16:45.995Z,72.30
2023-02-15T09:19:14.344Z,62.70
2023-02-15T09:21:42.550Z,61.30
2023-02-15T09:24:11.339Z,64.25
2023-02-15T09:26:41.472Z,54.05
2023-02-15T09:29:11.814Z,59.65
2023-02-15T09:31:42.422Z,53.70
2023-02-15T09:34:11.718Z,58.95
2023-02-15T09:36:40.645Z,53.97
2023-02-15T09:39:10.120Z,58.97
2023-02-15T09:41:44.476Z,55.20
2023-02-15T09:44:17.499Z,55.78
2023-02-15T09:46:54.513Z,53.70
2023-02-15T09:49:26.045Z,50.50
2023-02-15T09:52:06.624Z,59.10
2023-02-15T09:54:47.715Z,55.85
2023-02-15T09:57:21.924Z,46.65
2023-02-15T09:59:56.583Z,54.35
2023-02-15T10:02:31.318Z,53.10
2023-02-15T10:05:05.384Z,53.22
2023-02-15T10:07:41.838Z,59.13
2023-02-15T10:10:16.937Z,48.63
2023-02-15T10:12:51.271Z,47.25
2023-02-15T10:15:26.355Z,48.58
2023-02-15T10:18:01.000Z,55.97
2023-02-15T10:20:32.721Z,49.75
2023-02-15T10:23:07.180Z,56.45
2023-02-15T10:25:38.475Z,55.22
2023-02-15T10:28:07.358Z,58.75
2023-02-15T10:30:40.309Z,56.67
2023-02-15T10:33:14.145Z,64.72
2023-02-15T10:35:49.529Z,53.47
2023-02-15T10:38:23.012Z,53.45
2023-02-15T10:40:59.339Z,50.47
2023-02-15T10:43:43.837Z,57.28
2023-02-15T10:46:18.849Z,48.97
2023-02-15T10:48:57.805Z,56.28
2023-02-15T10:51:31.913Z,56.88
2023-02-15T10:54:04.752Z,57.15
2023-02-15T10:56:36.945Z,50.22
2023-02-15T10:59:22.711Z,45.70
2023-02-15T11:01:55.255Z,50.88
2023-02-15T11:04:34.933Z,54.50
2023-02-15T11:07:06.609Z,63.47
2023-02-15T11:09:39.493Z,58.47
2023-02-15T11:12:10.480Z,63.50
2023-02-15T11:14:40.581Z,54.78
2023-02-15T11:17:12.554Z,48.85
2023-02-15T11:19:44.474Z,44.50
2023-02-15T11:22:12.772Z,49.92
2023-02-15T11:24:43.245Z,52.50
2023-02-15T11:27:19.269Z,46.50
2023-02-15T11:29:50.505Z,45.60
2023-02-15T11:32:22.825Z,49.25
2023-02-15T11:34:52.866Z,48.50
2023-02-15T11:37:21.948Z,55.45
2023-02-15T11:39:53.203Z,52.13
2023-02-15T11:42:23.358Z,44.15
2023-02-15T11:44:55.665Z,46.55
2023-02-15T11:47:25.674Z,42.88
2023-02-15T11:49:54.062Z,43.40
2023-02-15T11:52:22.221Z,48.03
2023-02-15T11:54:51.871Z,42.15
2023-02-15T11:57:23.151Z,35.97
2023-02-15T11:59:53.722Z,41.75
2023-02-15T12:02:23.265Z,40.30
2023-02-15T12:04:54.570Z,41.47
2023-02-15T12:07:26.676Z,47.45
2023-02-15T12:09:58.698Z,50.45
2023-02-15T12:12:27.872Z,109.60
2023-02-15T12:14:56.523Z,44.72
2023-02-15T12:17:25.924Z,45.78
2023-02-15T12:19:57.078Z,46.75
2023-02-15T12:22:26.378Z,47.72
2023-02-15T12:24:56.477Z,48.50
2023-02-15T12:27:26.841Z,47.72
2023-02-15T12:29:58.104Z,53.13
2023-02-15T12:32:27.547Z,45.97
2023-02-15T12:35:01.655Z,49.53
2023-02-15T12:37:33.066Z,51.30
2023-02-15T12:40:01.874Z,53.78
2023-02-15T12:42:30.612Z,51.30
2023-02-15T12:45:00.276Z,52.42
2023-02-15T12:47:29.218Z,51.90
2023-02-15T12:50:34.629Z,56.05
2023-02-15T12:53:15.730Z,50.88
2023-02-15T12:55:52.147Z,39.92
2023-02-15T12:58:22.594Z,51.60
2023-02-15T13:00:56.597Z,46.92
2023-02-15T13:03:26.026Z,45.67
2023-02-15T13:05:56.712Z,43.10
2023-02-15T13:08:29.509Z,48.70
2023-02-15T13:10:59.002Z,43.22
2023-02-15T13:13:28.136Z,48.22
2023-02-15T13:15:57.834Z,37.53
2023-02-15T13:18:30.870Z,43.88
2023-02-15T13:21:03.092Z,41.97
2023-02-15T13:23:34.781Z,45.95
2023-02-15T13:26:05.399Z,39.05
2023-02-15T13:28:37.423Z,32.90
2023-02-15T13:31:06.042Z,33.22
2023-02-15T13:33:35.911Z,40.35
2023-02-15T13:36:09.042Z,38.33
2023-02-15T13:38:47.391Z,33.03
2023-02-15T13:43:49.476Z,38.93
2023-02-15T13:46:26.108Z,38.53
2023-02-15T13:48:59.508Z,40.83
2023-02-15T13:51:34.421Z,40.20
2023-02-15T13:54:20.531Z,42.88
2023-02-15T13:56:57.352Z,39.10
2023-02-15T13:59:30.955Z,42.38
2023-02-15T14:02:00.433Z,42.55
2023-02-15T14:04:53.455Z,51.60
2023-02-15T14:07:49.641Z,46.40
2023-02-15T14:10:28.253Z,44.90
2023-02-15T14:13:05.453Z,42.03
2023-02-15T14:15:38.239Z,43.55
2023-02-15T14:18:13.761Z,45.10
2023-02-15T14:20:46.641Z,41.97
2023-02-15T14:23:20.825Z,44.38
2023-02-15T14:25:52.396Z,40.35
2023-02-15T14:28:27.677Z,42.08
2023-02-15T14:30:57.731Z,48.00
2023-02-15T14:33:35.233Z,44.50
2023-02-15T14:36:05.508Z,51.92
2023-02-15T14:38:42.497Z,50.30
2023-02-15T14:41:14.211Z,45.33
2023-02-15T14:43:47.493Z,49.83
2023-02-15T14:46:21.845Z,51.08
2023-02-15T14:48:50.688Z,47.95
2023-02-15T14:51:43.800Z,45.63
2023-02-15T14:54:34.235Z,44.72
2023-02-15T14:57:19.418Z,48.47
2023-02-15T14:59:53.519Z,44.75
2023-02-15T15:02:23.590Z,42.92
2023-02-15T15:04:58.205Z,53.08
2023-02-15T15:07:26.997Z,47.17
2023-02-15T15:10:02.895Z,47.97
2023-02-15T15:12:41.768Z,43.05
2023-02-15T15:15:16.446Z,50.33
2023-02-15T15:17:55.253Z,48.53
2023-02-15T15:20:51.820Z,46.42
2023-02-15T15:23:43.343Z,46.95
2023-02-15T15:26:26.199Z,47.17
2023-02-15T15:29:03.627Z,51.28
2023-02-15T15:31:40.082Z,49.23
2023-02-15T15:34:25.910Z,52.97
2023-02-15T15:37:05.996Z,55.78
2023-02-15T15:39:58.088Z,55.42
2023-02-15T15:42:34.657Z,59.90
2023-02-15T15:45:20.617Z,55.42
2023-02-15T15:48:07.387Z,57.55
2023-02-15T15:50:36.267Z,52.80
2023-02-15T15:53:05.494Z,57.75
2023-02-15T15:55:34.427Z,67.40
2023-02-15T15:58:06.370Z,54.05
2023-02-15T16:00:39.352Z,57.97
2023-02-15T16:03:07.580Z,53.80
2023-02-15T16:05:39.353Z,59.38
2023-02-15T16:08:07.718Z,62.05
2023-02-15T16:10:38.752Z,55.25
2023-02-15T16:13:15.050Z,59.58
2023-02-15T16:15:50.380Z,56.60
2023-02-15T16:18:19.191Z,53.50
2023-02-15T16:20:52.048Z,52.83
2023-02-15T16:23:28.645Z,54.20
2023-02-15T16:26:02.384Z,51.47
2023-02-15T16:28:32.500Z,54.63
2023-02-15T16:31:08.578Z,55.05
2023-02-15T16:33:38.229Z,50.75
2023-02-15T16:36:08.864Z,64.63
2023-02-15T16:38:55.213Z,55.40
2023-02-15T16:41:24.595Z,55.15
2023-02-15T16:43:55.032Z,47.38
2023-02-15T16:46:26.475Z,51.13
2023-02-15T16:48:55.301Z,57.47
2023-02-15T16:51:26.935Z,55.25
2023-02-15T16:53:57.059Z,62.35
2023-02-15T16:56:25.494Z,54.20
2023-02-15T16:58:56.155Z,59.75
2023-02-15T17:01:26.271Z,60.03
2023-02-15T17:04:12.003Z,63.35
2023-02-15T17:06:40.157Z,60.33
2023-02-15T17:09:11.009Z,59.85
2023-02-15T17:11:42.716Z,56.35
2023-02-15T17:14:21.885Z,55.33
2023-02-15T17:16:51.520Z,64.07
2023-02-15T17:19:21.188Z,56.42
2023-02-15T17:21:51.568Z,61.25
2023-02-15T17:24:22.505Z,60.22
2023-02-15T17:26:52.753Z,63.28
2023-02-15T17:29:25.324Z,61.05
2023-02-15T17:31:54.310Z,57.63
2023-02-15T17:34:40.498Z,55.90
2023-02-15T17:37:12.859Z,65.32
2023-02-15T17:39:41.866Z,53.88
2023-02-15T17:42:09.852Z,63.58
2023-02-15T17:44:39.171Z,58.10
2023-02-15T17:47:07.536Z,56.33
2023-02-15T17:49:38.067Z,60.95
2023-02-15T17:52:06.364Z,58.50
2023-02-15T17:54:52.016Z,54.15
2023-02-15T17:57:20.166Z,60.42
2023-02-15T18:00:07.179Z,62.83
2023-02-15T18:02:57.854Z,68.35
2023-02-15T18:05:43.420Z,60.83
2023-02-15T18:08:30.080Z,57.95
2023-02-15T18:11:15.863Z,58.33
2023-02-15T18:13:44.325Z,58.88
2023-02-15T18:16:16.344Z,64.35
2023-02-15T18:18:45.320Z,63.35
2023-02-15T18:21:14.935Z,73.85
2023-02-15T18:23:43.278Z,63.80
2023-02-15T18:26:12.386Z,60.40
2023-02-15T18:28:41.384Z,64.95
2023-02-15T18:31:09.464Z,67.97
2023-02-15T18:33:40.613Z,71.22
2023-02-15T18:36:10.313Z,72.00
2023-02-15T18:38:38.384Z,66.60
2023-02-15T18:41:07.192Z,66.35
2023-02-15T18:43:35.056Z,71.03
2023-02-15T18:46:03.052Z,74.22
2023-02-15T18:48:30.949Z,71.88
2023-02-15T18:51:00.443Z,64.85
2023-02-15T18:53:28.433Z,66.32
2023-02-15T18:55:56.402Z,76.63
2023-02-15T18:58:24.814Z,81.38
2023-02-15T19:00:53.442Z,72.60
2023-02-15T19:03:21.627Z,83.07
2023-02-15T19:05:49.840Z,82.25
2023-02-15T19:08:22.072Z,81.00
2023-02-15T19:10:50.192Z,81.88
2023-02-15T19:13:18.614Z,90.50
2023-02-15T19:15:47.279Z,86.43
2023-02-15T19:18:15.584Z,83.00
2023-02-15T19:20:45.262Z,77.53
2023-02-15T19:23:15.367Z,77.95
2023-02-15T19:25:45.222Z,83.43
2023-02-15T19:28:16.244Z,98.38
2023-02-15T19:30:45.918Z,92.88
2023-02-15T19:33:17.095Z,85.82
2023-02-15T19:35:46.084Z,82.82
2023-02-15T19:38:17.443Z,84.97
2023-02-15T19:40:47.530Z,104.82
2023-02-15T19:43:17.577Z,89.88
2023-02-15T19:45:46.167Z,97.88
2023-02-15T19:48:15.068Z,99.28
2023-02-15T19:50:45.010Z,91.10
2023-02-15T19:53:20.974Z,90.88
2023-02-15T19:55:50.666Z,89.18
2023-02-15T19:58:19.939Z,92.07
2023-02-15T20:00:48.535Z,98.65
2023-02-15T20:03:16.870Z,88.43
2023-02-15T20:05:45.323Z,87.40
2023-02-15T20:08:16.934Z,95.00
2023-02-15T20:10:45.748Z,114.15
2023-02-15T20:13:16.892Z,114.20
2023-02-15T20:15:45.345Z,102.05
2023-02-15T20:18:13.505Z,90.50
2023-02-15T20:20:42.856Z,106.80
2023-02-15T20:23:17.891Z,91.25
2023-02-15T20:25:46.485Z,87.25
2023-02-15T20:28:19.379Z,90.95
2023-02-15T20:30:47.850Z,102.85
2023-02-15T20:33:16.114Z,96.72
2023-02-15T20:35:47.842Z,92.05
2023-02-15T20:38:18.746Z,89.10
2023-02-15T20:41:01.033Z,99.78
2023-02-15T20:43:31.553Z,92.18
2023-02-15T20:46:01.042Z,104.80
2023-02-15T20:48:29.322Z,104.70
2023-02-15T20:50:59.309Z,93.88
2023-02-15T20:53:27.868Z,103.97
2023-02-15T20:55:56.229Z,103.97
2023-02-15T20:58:25.855Z,92.07
2023-02-15T21:00:58.211Z,104.45
2023-02-15T21:03:31.105Z,99.07
2023-02-15T21:05:59.275Z,98.03
2023-02-15T21:08:28.060Z,97.95
2023-02-15T21:10:56.216Z,99.95
2023-02-15T21:13:25.005Z,103.05
2023-02-15T21:15:53.806Z,103.00
2023-02-15T21:18:24.250Z,105.05
2023-02-15T21:20:53.522Z,103.03
2023-02-15T21:23:22.588Z,105.35
2023-02-15T21:25:51.107Z,100.97
2023-02-15T21:28:20.721Z,113.20
2023-02-15T21:30:48.662Z,107.70
2023-02-15T21:33:16.686Z,129.77
2023-02-15T21:35:48.007Z,108.70
2023-02-15T21:38:16.684Z,95.25
2023-02-15T21:40:44.729Z,95.55
2023-02-15T21:43:33.933Z,105.35
2023-02-15T21:48:47.349Z,98.80
2023-02-15T21:51:39.142Z,105.07
2023-02-15T21:54:07.128Z,97.85
2023-02-15T21:56:35.697Z,116.35
2023-02-15T21:59:03.865Z,103.78
2023-02-15T22:01:32.428Z,102.57
2023-02-15T22:04:00.811Z,104.00
2023-02-15T22:06:30.344Z,102.53
2023-02-15T22:08:58.394Z,109.13
2023-02-15T22:11:26.288Z,113.90
2023-02-15T22:13:54.732Z,101.85
2023-02-15T22:16:24.311Z,101.18
2023-02-15T22:18:52.344Z,101.65
2023-02-15T22:21:20.900Z,94.80
2023-02-15T22:23:50.789Z,100.97
2023-02-15T22:26:20.591Z,103.20
2023-02-15T22:28:48.617Z,108.65
2023-02-15T22:31:21.104Z,98.82
2023-02-15T22:33:49.941Z,99.35
2023-02-15T22:36:22.943Z,108.00
2023-02-15T22:38:52.628Z,105.88
2023-02-15T22:41:20.898Z,106.03
2023-02-15T22:43:50.520Z,113.15
2023-02-15T22:46:20.078Z,113.05
2023-02-15T22:48:48.771Z,110.35
2023-02-15T22:51:17.835Z,111.45
2023-02-15T22:53:46.316Z,127.15
2023-02-15T22:56:18.518Z,121.47
2023-02-15T22:58:50.614Z,122.68
2023-02-15T23:01:24.063Z,115.60
2023-02-15T23:03:52.055Z,117.90
2023-02-15T23:06:22.247Z,131.25
2023-02-15T23:08:50.313Z,141.95
2023-02-15T23:11:19.849Z,135.77
2023-02-15T23:13:49.010Z,151.63
2023-02-15T23:16:17.867Z,140.00
2023-02-15T23:18:46.496Z,159.07
2023-02-15T23:21:17.196Z,149.48
2023-02-15T23:23:48.910Z,156.98
2023-02-15T23:26:18.239Z,137.82
2023-02-15T23:28:47.969Z,146.52
2023-02-15T23:31:17.439Z,133.98
2023-02-15T23:33:45.997Z,126.95
2023-02-15T23:36:24.640Z,125.88
2023-02-15T23:38:52.501Z,119.00
2023-02-15T23:41:23.035Z,124.90
2023-02-15T23:43:54.172Z,127.72
2023-02-15T23:46:35.095Z,129.02
2023-02-15T23:49:14.797Z,125.35
2023-02-15T23:51:44.251Z,131.63
2023-02-15T23:54:13.826Z,122.03
2023-02-15T23:56:43.003Z,121.65
2023-02-15T23:59:13.358Z,123.03
